Aérodrome :
LOGIN :

S'inscrire | Disclaimer

   EN    FR    IT 

 










Légende :    VFR   VFR Marginal   IFR   IFR Intensif   IFR Très Intensif
Visi : 
Plafond : 
>= 8 km
>= 3000ft
5 à 8 km
1000 à 3000 ft
1500m à 5 km
500 à 1000 ft
800 à 1500m
200 à 500 ft
< 800m
< 200 ft
Symboles :   Orages  Brouillard  Fortes neiges  Fortes précipitations  Vent > 20 kt
SIGMETs :   Divers  Orages  Givrage  Turbulence  Onde Orograph.  Cendres Volcan.






- Altitude de l'aérodrome : 1411 ft
- Code IATA : SZG


LOWS - Salzburg

DERNIER METAR :
  • 010650Z VRB01KT 9999 3500N VCFG NSC 10/08 Q1009 TEMPO 15007KT BECMG NSW

METARs EXPIRÉS :
  • 010620Z 33002KT 9999 3000N VCFG NSC 08/08 Q1009 NOSIG
  • 010550Z VRB01KT 9999 3000N VCFG NSC 05/05 Q1009 TEMPO 1500 BCFG
  • 010520Z VRB01KT 3000 1300S R15/P1500U R33/P1500D BCFG NSC 04/04 Q1009 TEMPO 1000 BCFG
  • 010450Z VRB02KT 3000 1500S BCFG NSC 05/05 Q1010 TEMPO 1000 BCFG
  • 010420Z VRB02KT 9999 4000N VCFG NSC 05/05 Q1010 TEMPO 1000 BCFG

TAF TAF LOWS
Valide du 01 à 06h jusqu'au 02 à 06h UTC


010515Z 0106/0206 17007KT CAVOK TX19/0114Z TN06/0106Z
PROB30
TEMPO 0106/0108 1000 BCFG NSC
BECMG 0110/0112 03005KT
BECMG 0118/0120 15007KT 9999 SCT060 BKN100



MET'MAP, la Météo Aéronautique d'un coup d'oeil ! - Copyright ORBIFLY Décembre 2007 - Disclaimer

ORBIFLY MET'MAP TEAM :

Programmation & Développement : Alexandra Zaïnal
Sur une idée originale de : Baudouin d'Aumeries
Assistance à la programmation : Marc-Olivier Méhu
Soutien technique & logistique : Manuel Goepfert

Contact : metmap@orbifly.com




SOURCES & CREDITS :

   NOAA